createdAt,value
2017-08-08T00:02:24.885Z,57.49
2017-08-08T00:04:52.370Z,57.30
2017-08-08T00:07:19.821Z,57.22
2017-08-08T00:09:47.307Z,56.96
2017-08-08T00:12:14.800Z,56.94
2017-08-08T00:14:42.295Z,57.56
2017-08-08T00:17:09.782Z,57.88
2017-08-08T00:19:37.221Z,57.88
2017-08-08T00:22:04.708Z,57.88
2017-08-08T00:24:32.152Z,57.63
2017-08-08T00:26:59.638Z,57.68
2017-08-08T00:29:27.102Z,57.98
2017-08-08T00:31:54.582Z,58.12
2017-08-08T00:34:22.046Z,57.75
2017-08-08T00:36:49.533Z,57.89
2017-08-08T00:39:16.990Z,58.25
2017-08-08T00:41:44.437Z,58.33
2017-08-08T00:44:11.907Z,58.50
2017-08-08T00:46:39.394Z,58.34
2017-08-08T00:49:06.849Z,58.30
2017-08-08T00:51:34.334Z,58.18
2017-08-08T00:54:01.817Z,58.18
2017-08-08T00:56:29.273Z,58.06
2017-08-08T00:58:56.765Z,58.35
2017-08-08T01:01:24.238Z,59.04
2017-08-08T01:03:51.721Z,58.74
2017-08-08T01:06:19.186Z,58.86
2017-08-08T01:08:46.640Z,59.33
2017-08-08T01:11:14.142Z,59.45
2017-08-08T01:13:41.596Z,59.17
2017-08-08T01:16:09.070Z,59.60
2017-08-08T01:18:36.550Z,59.87
2017-08-08T01:21:04.067Z,59.89
2017-08-08T01:23:31.524Z,59.61
2017-08-08T01:25:59.011Z,59.73
2017-08-08T01:28:26.465Z,59.90
2017-08-08T01:30:53.947Z,60.20
2017-08-08T01:33:21.406Z,60.19
2017-08-08T01:35:48.895Z,60.06
2017-08-08T01:38:16.370Z,60.74
2017-08-08T01:40:43.824Z,61.00
2017-08-08T01:43:11.331Z,60.92
2017-08-08T01:45:38.794Z,60.47
2017-08-08T01:48:06.282Z,60.52
2017-08-08T01:50:33.730Z,60.31
2017-08-08T01:53:01.210Z,60.08
2017-08-08T01:55:28.667Z,60.27
2017-08-08T01:57:56.137Z,60.33
2017-08-08T02:00:23.615Z,60.37
2017-08-08T02:02:51.085Z,60.36
2017-08-08T02:05:18.578Z,60.25
2017-08-08T02:07:46.050Z,61.14
2017-08-08T02:10:13.536Z,61.09
2017-08-08T02:12:40.988Z,60.67
2017-08-08T02:15:08.474Z,60.82
2017-08-08T02:17:35.942Z,60.87
2017-08-08T02:20:03.447Z,60.83
2017-08-08T02:22:30.922Z,60.60
2017-08-08T02:24:58.378Z,60.63
2017-08-08T02:27:25.872Z,60.34
2017-08-08T02:29:53.313Z,60.36
2017-08-08T02:32:20.803Z,60.12
2017-08-08T02:34:48.283Z,60.21
2017-08-08T02:37:15.771Z,60.18
2017-08-08T02:39:43.233Z,60.24
2017-08-08T02:42:10.702Z,59.89
2017-08-08T02:47:11.997Z,59.39
2017-08-08T02:49:39.455Z,59.63
2017-08-08T02:52:06.905Z,59.32
2017-08-08T02:54:34.392Z,59.22
2017-08-08T02:57:01.869Z,59.30
2017-08-08T02:59:29.379Z,59.55
2017-08-08T03:01:56.888Z,59.96
2017-08-08T03:04:24.349Z,60.15
2017-08-08T03:06:51.818Z,60.36
2017-08-08T03:09:19.285Z,60.80
2017-08-08T03:11:46.767Z,61.15
2017-08-08T03:14:14.224Z,60.78
2017-08-08T03:16:41.723Z,60.56
2017-08-08T03:19:09.176Z,60.46
2017-08-08T03:21:36.656Z,60.77
2017-08-08T03:24:04.131Z,60.97
2017-08-08T03:26:31.635Z,60.91
2017-08-08T03:28:59.106Z,61.30
2017-08-08T03:31:26.602Z,61.36
2017-08-08T03:33:54.065Z,61.58
2017-08-08T03:36:21.533Z,61.40
2017-08-08T03:38:49.016Z,61.25
2017-08-08T03:41:16.502Z,61.30
2017-08-08T03:43:43.973Z,61.42
2017-08-08T03:46:11.449Z,61.37
2017-08-08T03:48:38.942Z,61.65
2017-08-08T03:51:06.384Z,62.39
2017-08-08T03:53:33.923Z,62.17
2017-08-08T03:56:01.436Z,61.96
2017-08-08T03:58:28.906Z,61.54
2017-08-08T04:00:56.387Z,61.60
2017-08-08T04:03:23.872Z,61.75
2017-08-08T04:05:51.368Z,61.58
2017-08-08T04:08:18.915Z,61.90
2017-08-08T04:10:46.416Z,62.05
2017-08-08T04:13:13.866Z,62.28
2017-08-08T04:15:41.357Z,61.83
2017-08-08T04:18:08.827Z,62.26
2017-08-08T04:20:36.327Z,62.71
2017-08-08T04:23:03.799Z,62.93
2017-08-08T04:25:31.347Z,63.35
2017-08-08T04:27:58.794Z,63.13
2017-08-08T04:30:26.274Z,63.41
2017-08-08T04:32:53.732Z,63.50
2017-08-08T04:35:21.247Z,63.64
2017-08-08T04:37:48.732Z,63.74
2017-08-08T04:40:16.208Z,63.96
2017-08-08T04:42:43.711Z,64.01
2017-08-08T04:45:11.165Z,63.91
2017-08-08T04:47:38.647Z,64.13
2017-08-08T04:50:06.104Z,64.17
2017-08-08T04:52:33.597Z,64.00
2017-08-08T04:55:01.051Z,64.07
2017-08-08T04:57:28.538Z,63.96
2017-08-08T04:59:56.036Z,63.81
2017-08-08T05:02:23.515Z,64.14
2017-08-08T05:04:51.002Z,64.08
2017-08-08T05:07:18.802Z,63.82
2017-08-08T05:09:46.278Z,63.91
2017-08-08T05:12:13.747Z,64.05
2017-08-08T05:14:41.252Z,64.08
2017-08-08T05:17:08.714Z,64.09
2017-08-08T05:19:36.195Z,63.93
2017-08-08T05:22:03.662Z,64.24
2017-08-08T05:24:31.164Z,63.97
2017-08-08T05:26:58.671Z,63.84
2017-08-08T05:29:26.141Z,64.01
2017-08-08T05:31:53.614Z,63.82
2017-08-08T05:34:21.095Z,63.43
2017-08-08T05:36:48.606Z,63.13
2017-08-08T05:39:16.085Z,63.11
2017-08-08T05:41:43.586Z,63.22
2017-08-08T05:44:11.697Z,63.08
2017-08-08T05:46:39.153Z,63.07
2017-08-08T05:49:07.223Z,62.89
2017-08-08T05:51:35.603Z,63.05
2017-08-08T05:54:03.122Z,62.89
2017-08-08T05:56:30.599Z,62.85
2017-08-08T05:58:58.094Z,62.60
2017-08-08T06:01:25.644Z,62.21
2017-08-08T06:03:53.600Z,61.98
2017-08-08T06:06:21.087Z,61.92
2017-08-08T06:08:48.576Z,61.94
2017-08-08T06:11:16.039Z,61.69
2017-08-08T06:13:43.554Z,61.81
2017-08-08T06:16:11.055Z,61.87
2017-08-08T06:18:38.555Z,61.95
2017-08-08T06:21:06.076Z,61.77
2017-08-08T06:23:33.544Z,61.56
2017-08-08T06:26:01.017Z,61.37
2017-08-08T06:28:28.463Z,61.36
2017-08-08T06:30:55.959Z,61.44
2017-08-08T06:33:23.459Z,60.79
2017-08-08T06:35:50.942Z,60.39
2017-08-08T06:38:18.428Z,60.07
2017-08-08T06:40:45.877Z,59.77
2017-08-08T06:43:14.577Z,59.35
2017-08-08T06:45:42.049Z,59.13
2017-08-08T06:48:09.594Z,59.33
2017-08-08T06:50:37.079Z,59.86
2017-08-08T06:53:04.569Z,59.54
2017-08-08T06:55:32.032Z,60.08
2017-08-08T06:57:59.543Z,60.21
2017-08-08T07:00:27.007Z,60.41
2017-08-08T07:02:54.518Z,61.06
2017-08-08T07:05:22.015Z,61.00
2017-08-08T07:07:49.522Z,61.13
2017-08-08T07:10:17.091Z,61.84
2017-08-08T07:12:44.562Z,62.51
2017-08-08T07:15:12.065Z,63.38
2017-08-08T07:17:39.568Z,63.92
2017-08-08T07:20:07.102Z,64.23
2017-08-08T07:22:34.762Z,64.65
2017-08-08T07:25:02.258Z,64.47
2017-08-08T07:27:29.735Z,65.11
2017-08-08T07:29:57.763Z,65.74
2017-08-08T07:32:25.366Z,65.02
2017-08-08T07:34:52.898Z,66.48
2017-08-08T07:37:20.406Z,66.06
2017-08-08T07:39:48.093Z,65.58
2017-08-08T07:42:15.658Z,65.26
2017-08-08T07:44:43.165Z,65.13
2017-08-08T07:47:11.652Z,66.27
2017-08-08T07:49:39.754Z,66.08
2017-08-08T07:52:07.250Z,68.94
2017-08-08T07:54:34.738Z,71.41
2017-08-08T07:57:02.238Z,72.20
2017-08-08T07:59:30.555Z,72.30
2017-08-08T08:01:58.055Z,72.53
2017-08-08T08:04:25.591Z,71.84
2017-08-08T08:06:53.079Z,71.43
2017-08-08T08:09:20.688Z,71.38
2017-08-08T08:11:48.201Z,71.53
2017-08-08T08:14:15.715Z,70.83
2017-08-08T08:16:44.046Z,72.84
2017-08-08T08:19:11.571Z,72.17
2017-08-08T08:21:39.080Z,72.67
2017-08-08T08:24:06.554Z,72.88
2017-08-08T08:26:34.059Z,72.08
2017-08-08T08:29:01.623Z,71.05
2017-08-08T08:31:29.952Z,70.41
2017-08-08T08:33:57.461Z,70.04
2017-08-08T08:36:25.022Z,70.24
2017-08-08T08:38:52.615Z,70.65
2017-08-08T08:41:20.081Z,71.49
2017-08-08T08:43:47.569Z,71.57
2017-08-08T08:46:15.077Z,72.90
2017-08-08T08:48:42.607Z,72.24
2017-08-08T08:51:10.067Z,73.95
2017-08-08T08:53:37.576Z,73.76
2017-08-08T08:56:05.041Z,74.38
2017-08-08T08:58:32.542Z,74.99
2017-08-08T09:01:00.011Z,74.02
2017-08-08T09:03:27.566Z,74.98
2017-08-08T09:05:55.075Z,74.56
2017-08-08T09:08:22.634Z,75.19
2017-08-08T09:10:50.129Z,76.18
2017-08-08T09:13:18.860Z,75.78
2017-08-08T09:15:46.321Z,74.68
2017-08-08T09:18:13.883Z,75.43
2017-08-08T09:20:41.366Z,75.76
2017-08-08T09:23:08.869Z,76.16
2017-08-08T09:25:36.375Z,76.71
2017-08-08T09:28:03.876Z,75.80
2017-08-08T09:30:32.264Z,76.55
2017-08-08T09:32:59.766Z,76.19
2017-08-08T09:35:27.241Z,76.20
2017-08-08T09:37:54.731Z,75.76
2017-08-08T09:40:22.210Z,76.01
2017-08-08T09:42:49.733Z,75.84
2017-08-08T09:45:17.193Z,76.42
2017-08-08T09:47:44.683Z,76.61
2017-08-08T09:50:12.173Z,76.50
2017-08-08T09:52:40.380Z,75.60
2017-08-08T09:55:07.852Z,76.41
2017-08-08T09:57:35.374Z,76.72
2017-08-08T10:00:02.870Z,76.12
2017-08-08T10:02:30.377Z,76.75
2017-08-08T10:04:57.944Z,75.70
2017-08-08T10:07:25.408Z,75.89
2017-08-08T10:09:52.895Z,76.33
2017-08-08T10:12:20.395Z,76.16
2017-08-08T10:14:47.837Z,75.88
2017-08-08T10:17:15.803Z,75.64
2017-08-08T10:19:43.306Z,74.64
2017-08-08T10:22:10.792Z,75.15
2017-08-08T10:24:38.265Z,74.81
2017-08-08T10:27:05.743Z,74.46
2017-08-08T10:29:33.558Z,73.96
2017-08-08T10:32:01.043Z,74.56
2017-08-08T10:34:28.510Z,73.87
2017-08-08T10:36:56.007Z,73.51
2017-08-08T10:39:24.006Z,73.29
2017-08-08T10:41:51.486Z,72.83
2017-08-08T10:44:19.014Z,72.68
2017-08-08T10:46:46.509Z,73.58
2017-08-08T10:49:13.978Z,73.81
2017-08-08T10:51:41.493Z,73.62
2017-08-08T10:54:08.990Z,72.85
2017-08-08T10:56:36.509Z,71.83
2017-08-08T10:59:04.362Z,71.81
2017-08-08T11:01:31.856Z,71.44
2017-08-08T11:03:59.362Z,71.79
2017-08-08T11:06:26.945Z,72.51
2017-08-08T11:08:54.452Z,72.48
2017-08-08T11:11:23.525Z,72.19
2017-08-08T11:13:50.982Z,73.21
2017-08-08T11:16:18.623Z,73.66
2017-08-08T11:18:46.097Z,73.35
2017-08-08T11:21:13.565Z,73.72
2017-08-08T11:23:41.370Z,72.51
2017-08-08T11:26:08.815Z,72.72
2017-08-08T11:28:36.317Z,72.70
2017-08-08T11:31:03.843Z,72.59
2017-08-08T11:33:31.425Z,72.44
2017-08-08T11:35:58.930Z,72.15
2017-08-08T11:38:27.156Z,71.94
2017-08-08T11:40:54.681Z,72.28
2017-08-08T11:43:22.133Z,71.34
2017-08-08T11:45:49.704Z,71.63
2017-08-08T11:48:17.165Z,72.30
2017-08-08T11:50:44.653Z,72.07
2017-08-08T11:53:12.108Z,72.34
2017-08-08T11:55:39.596Z,71.34
2017-08-08T11:58:07.981Z,71.27
2017-08-08T12:00:35.459Z,71.64
2017-08-08T12:03:03.758Z,69.98
2017-08-08T12:05:31.263Z,68.24
2017-08-08T12:07:58.734Z,68.74
2017-08-08T12:10:26.225Z,68.51
2017-08-08T12:12:53.722Z,68.34
2017-08-08T12:15:21.205Z,66.65
2017-08-08T12:17:48.698Z,66.35
2017-08-08T12:20:16.175Z,65.60
2017-08-08T12:22:43.728Z,64.30
2017-08-08T12:25:11.193Z,63.71
2017-08-08T12:27:39.631Z,62.86
2017-08-08T12:30:07.165Z,62.16
2017-08-08T12:32:34.725Z,62.00
2017-08-08T12:35:02.186Z,62.28
2017-08-08T12:37:29.706Z,63.08
2017-08-08T12:39:57.165Z,63.49
2017-08-08T12:42:25.562Z,64.71
2017-08-08T12:44:53.048Z,64.47
2017-08-08T12:47:20.630Z,64.80
2017-08-08T12:49:48.132Z,65.30
2017-08-08T12:52:15.639Z,65.16
2017-08-08T12:54:43.097Z,64.90
2017-08-08T12:57:10.601Z,64.98
2017-08-08T12:59:38.082Z,64.56
2017-08-08T13:02:05.631Z,64.37
2017-08-08T13:04:33.141Z,63.82
2017-08-08T13:07:00.643Z,63.73
2017-08-08T13:09:29.006Z,63.44
2017-08-08T13:11:56.969Z,62.86
2017-08-08T13:14:24.470Z,63.15
2017-08-08T13:16:52.008Z,63.28
2017-08-08T13:19:19.509Z,63.22
2017-08-08T13:21:47.010Z,63.62
2017-08-08T13:24:14.681Z,63.53
2017-08-08T13:26:42.195Z,63.74
2017-08-08T13:29:09.722Z,63.82
2017-08-08T13:31:37.371Z,63.13
2017-08-08T13:34:05.177Z,62.01
2017-08-08T13:36:32.658Z,60.70
2017-08-08T13:39:00.159Z,58.48
2017-08-08T13:41:27.635Z,57.05
2017-08-08T13:43:55.124Z,57.33
2017-08-08T13:46:22.594Z,56.36
2017-08-08T13:48:50.115Z,55.63
2017-08-08T13:51:17.603Z,55.41
2017-08-08T13:53:45.136Z,55.07
2017-08-08T13:56:12.644Z,54.47
2017-08-08T13:58:40.202Z,54.35
2017-08-08T14:01:07.677Z,54.34
2017-08-08T14:03:36.069Z,54.23
2017-08-08T14:06:03.581Z,55.11
2017-08-08T14:08:31.066Z,55.25
2017-08-08T14:10:58.592Z,55.09
2017-08-08T14:13:26.550Z,55.76
2017-08-08T14:15:54.996Z,55.93
2017-08-08T14:18:23.242Z,55.26
2017-08-08T14:20:50.782Z,53.97
2017-08-08T14:23:18.231Z,53.73
2017-08-08T14:25:45.765Z,53.54
2017-08-08T14:28:13.284Z,52.33
2017-08-08T14:30:40.749Z,51.49
2017-08-08T14:33:08.224Z,50.06
2017-08-08T14:35:35.746Z,50.06
2017-08-08T14:38:03.960Z,49.28
2017-08-08T14:40:31.616Z,47.75
2017-08-08T14:42:59.119Z,45.80
2017-08-08T14:45:26.587Z,45.43
2017-08-08T14:47:54.091Z,45.63
2017-08-08T14:50:22.174Z,46.62
2017-08-08T14:52:50.452Z,46.95
2017-08-08T14:55:18.027Z,48.09
2017-08-08T14:57:45.571Z,48.81
2017-08-08T15:00:13.199Z,49.86
2017-08-08T15:02:40.671Z,50.08
2017-08-08T15:05:08.213Z,50.55
2017-08-08T15:07:51.306Z,51.19
2017-08-08T15:10:24.213Z,52.63
2017-08-08T15:12:51.808Z,52.35
2017-08-08T15:15:19.735Z,50.74
2017-08-08T15:17:47.242Z,50.29
2017-08-08T15:20:14.754Z,49.07
2017-08-08T15:22:42.259Z,48.57
2017-08-08T15:25:09.743Z,47.92
2017-08-08T15:27:37.223Z,47.15
2017-08-08T15:30:05.626Z,46.95
2017-08-08T15:32:33.187Z,46.30
2017-08-08T15:35:01.243Z,46.31
2017-08-08T15:37:28.742Z,47.98
2017-08-08T15:39:56.226Z,49.49
2017-08-08T15:42:23.822Z,50.31
2017-08-08T15:44:51.285Z,50.89
2017-08-08T15:47:18.755Z,51.15
2017-08-08T15:49:46.802Z,51.27
2017-08-08T15:52:14.250Z,51.42
2017-08-08T15:54:41.758Z,51.79
2017-08-08T15:57:09.223Z,52.04
2017-08-08T15:59:36.744Z,51.50
2017-08-08T16:02:04.381Z,52.17
2017-08-08T16:04:31.920Z,52.37
2017-08-08T16:06:59.372Z,52.89
2017-08-08T16:09:26.887Z,53.35
2017-08-08T16:11:54.366Z,53.37
2017-08-08T16:14:21.921Z,52.99
2017-08-08T16:16:49.407Z,52.82
2017-08-08T16:19:16.918Z,52.50
2017-08-08T16:21:44.524Z,52.18
2017-08-08T16:24:12.017Z,51.96
2017-08-08T16:26:39.514Z,51.42
2017-08-08T16:29:07.023Z,51.11
2017-08-08T16:31:34.642Z,50.74
2017-08-08T16:34:02.161Z,50.58
2017-08-08T16:36:29.852Z,51.13
2017-08-08T16:38:57.408Z,51.76
2017-08-08T16:41:24.861Z,51.58
2017-08-08T16:43:52.352Z,50.93
2017-08-08T16:46:19.850Z,50.19
2017-08-08T16:48:48.025Z,50.06
2017-08-08T16:51:15.544Z,50.19
2017-08-08T16:53:43.097Z,50.36
2017-08-08T16:56:10.588Z,50.37
2017-08-08T16:58:38.724Z,50.70
2017-08-08T17:01:06.175Z,50.57
2017-08-08T17:03:33.691Z,50.57
2017-08-08T17:06:01.170Z,50.44
2017-08-08T17:08:28.716Z,50.58
2017-08-08T17:10:56.222Z,50.76
2017-08-08T17:13:23.695Z,51.06
2017-08-08T17:15:51.205Z,51.80
2017-08-08T17:18:18.658Z,52.07
2017-08-08T17:20:46.151Z,51.99
2017-08-08T17:23:13.617Z,52.30
2017-08-08T17:25:41.108Z,52.22
2017-08-08T17:28:08.590Z,52.92
2017-08-08T17:30:36.697Z,52.78
2017-08-08T17:33:04.153Z,53.19
2017-08-08T17:35:31.716Z,53.77
2017-08-08T17:37:59.213Z,54.30
2017-08-08T17:40:26.669Z,54.96
2017-08-08T17:42:56.949Z,54.79
2017-08-08T17:45:24.451Z,54.76
2017-08-08T17:47:51.963Z,54.67
2017-08-08T17:50:19.423Z,54.71
2017-08-08T17:52:46.938Z,54.68
2017-08-08T17:55:16.027Z,54.66
2017-08-08T17:57:43.525Z,54.82
2017-08-08T18:00:11.083Z,54.37
2017-08-08T18:02:38.587Z,54.56
2017-08-08T18:05:06.087Z,54.84
2017-08-08T18:07:33.559Z,55.66
2017-08-08T18:10:01.032Z,55.39
2017-08-08T18:12:28.490Z,55.22
2017-08-08T18:14:55.984Z,55.55
2017-08-08T18:17:23.454Z,55.95
2017-08-08T18:19:50.943Z,56.14
2017-08-08T18:22:18.407Z,56.28
2017-08-08T18:24:45.897Z,56.78
2017-08-08T18:27:13.355Z,57.52
2017-08-08T18:29:40.811Z,57.19
2017-08-08T18:32:08.322Z,57.40
2017-08-08T18:34:35.805Z,57.74
2017-08-08T18:37:03.293Z,57.70
2017-08-08T18:39:31.389Z,58.07
2017-08-08T18:41:58.924Z,57.69
2017-08-08T18:44:26.409Z,57.93
2017-08-08T18:46:53.878Z,57.92
2017-08-08T18:49:21.381Z,57.93
2017-08-08T18:51:49.610Z,58.37
2017-08-08T18:54:17.124Z,58.74
2017-08-08T18:56:44.650Z,59.20
2017-08-08T18:59:12.147Z,59.30
2017-08-08T19:01:39.597Z,59.92
2017-08-08T19:04:07.131Z,60.38
2017-08-08T19:06:34.647Z,59.79
2017-08-08T19:09:02.171Z,60.04
2017-08-08T19:11:29.656Z,59.87
2017-08-08T19:13:57.184Z,60.31
2017-08-08T19:16:24.694Z,60.50
2017-08-08T19:18:52.195Z,60.79
2017-08-08T19:21:19.749Z,60.86
2017-08-08T19:23:47.272Z,61.04
2017-08-08T19:26:14.741Z,61.38
2017-08-08T19:28:42.225Z,61.30
2017-08-08T19:31:09.742Z,61.85
2017-08-08T19:33:37.218Z,62.72
2017-08-08T19:36:04.731Z,64.04
2017-08-08T19:38:32.236Z,64.78
2017-08-08T19:40:59.707Z,64.33
2017-08-08T19:43:27.231Z,64.87
2017-08-08T19:45:54.702Z,65.18
2017-08-08T19:48:22.201Z,65.30
2017-08-08T19:50:49.676Z,65.73
2017-08-08T19:53:17.174Z,65.28
2017-08-08T19:55:44.688Z,64.97
2017-08-08T19:58:12.250Z,65.21
2017-08-08T20:00:39.779Z,65.53
2017-08-08T20:03:07.275Z,65.38
2017-08-08T20:05:34.752Z,64.86
2017-08-08T20:08:02.232Z,64.18
2017-08-08T20:10:29.747Z,63.68
2017-08-08T20:12:57.238Z,63.15
2017-08-08T20:15:24.729Z,62.51
2017-08-08T20:17:52.198Z,62.84
2017-08-08T20:20:19.709Z,64.07
2017-08-08T20:22:47.210Z,64.80
2017-08-08T20:25:14.730Z,65.71
2017-08-08T20:27:42.187Z,66.15
2017-08-08T20:30:09.691Z,65.79
2017-08-08T20:32:37.153Z,66.19
2017-08-08T20:35:04.652Z,67.20
2017-08-08T20:37:32.134Z,68.26
2017-08-08T20:39:59.627Z,67.95
2017-08-08T20:42:27.127Z,68.82
2017-08-08T20:44:54.624Z,69.39
2017-08-08T20:47:22.081Z,70.13
2017-08-08T20:49:49.605Z,69.74
2017-08-08T20:52:17.069Z,71.08
2017-08-08T20:54:44.597Z,71.53
2017-08-08T20:57:12.105Z,71.77
2017-08-08T20:59:39.613Z,71.25
2017-08-08T21:02:07.071Z,70.97
2017-08-08T21:04:34.565Z,70.98
2017-08-08T21:07:02.050Z,70.01
2017-08-08T21:09:29.560Z,70.02
2017-08-08T21:11:57.134Z,69.99
2017-08-08T21:14:24.714Z,69.56
2017-08-08T21:16:52.234Z,69.32
2017-08-08T21:19:21.582Z,69.05
2017-08-08T21:21:49.096Z,68.19
2017-08-08T21:24:16.632Z,68.72
2017-08-08T21:26:44.101Z,68.35
2017-08-08T21:29:11.594Z,68.38
2017-08-08T21:31:39.068Z,68.14
2017-08-08T21:34:06.567Z,68.02
2017-08-08T21:36:34.030Z,68.32
2017-08-08T21:39:01.533Z,68.63
2017-08-08T21:41:29.059Z,68.62
2017-08-08T21:43:56.573Z,68.63
2017-08-08T21:46:24.063Z,69.23
2017-08-08T21:48:51.527Z,68.73
2017-08-08T21:51:19.004Z,67.95
2017-08-08T21:53:46.460Z,67.79
2017-08-08T21:56:13.953Z,67.66
2017-08-08T21:58:41.448Z,67.26
2017-08-08T22:01:08.898Z,66.74
2017-08-08T22:03:36.394Z,67.19
2017-08-08T22:06:03.890Z,67.33
2017-08-08T22:08:31.377Z,67.42
2017-08-08T22:10:58.862Z,67.47
2017-08-08T22:13:26.342Z,67.55
2017-08-08T22:15:53.803Z,67.93
2017-08-08T22:18:21.310Z,68.03
2017-08-08T22:20:48.760Z,68.39
2017-08-08T22:23:16.241Z,68.83
2017-08-08T22:25:43.720Z,69.05
2017-08-08T22:28:11.338Z,68.94
2017-08-08T22:30:38.796Z,68.59
2017-08-08T22:33:06.276Z,68.76
2017-08-08T22:35:33.740Z,68.82
2017-08-08T22:38:01.219Z,69.23
2017-08-08T22:40:28.678Z,69.26
2017-08-08T22:42:56.156Z,69.31
2017-08-08T22:45:23.610Z,69.09
2017-08-08T22:47:51.087Z,69.33
2017-08-08T22:50:18.555Z,69.79
2017-08-08T22:52:46.979Z,70.03
2017-08-08T22:55:14.493Z,70.27
2017-08-08T22:57:41.945Z,70.12
2017-08-08T23:00:09.448Z,69.97
2017-08-08T23:02:36.909Z,70.15
2017-08-08T23:05:04.449Z,70.03
2017-08-08T23:07:31.937Z,70.08
2017-08-08T23:09:59.426Z,70.37
2017-08-08T23:12:26.919Z,70.33
2017-08-08T23:14:54.382Z,70.23
2017-08-08T23:17:21.873Z,70.04
2017-08-08T23:19:49.336Z,69.78
2017-08-08T23:22:16.874Z,69.75
2017-08-08T23:24:44.397Z,70.08
2017-08-08T23:27:11.891Z,70.00
2017-08-08T23:29:39.359Z,70.64
2017-08-08T23:32:06.855Z,70.89
2017-08-08T23:34:34.363Z,70.54
2017-08-08T23:37:02.144Z,70.52
2017-08-08T23:39:29.652Z,70.44
2017-08-08T23:41:57.108Z,70.13
2017-08-08T23:44:24.625Z,70.09
2017-08-08T23:46:52.105Z,70.03
2017-08-08T23:49:20.596Z,70.11
2017-08-08T23:51:48.077Z,69.92
2017-08-08T23:54:15.562Z,70.58
2017-08-08T23:56:43.050Z,70.64
2017-08-08T23:59:10.525Z,70.89
